Time;durP1;ratioP1;P1;durP2;ratioP2;P2;SDS_P1;SDS_P2;PMS_P1;PMS_P2;Temp;Humidity;BMP_temperature;BMP_pressure;BME280_temperature;BME280_humidity;BME280_pressure;Samples;Min_cycle;Max_cycle;Signal;HPM_P1;HPM_P2
2021/08/03 00:02:22;;;;;;;2.90;0.73;;;16.00;72.70;;;;;;5075806;28;20036;-78
2021/08/03 00:04:49;;;;;;;2.08;0.88;;;15.90;72.60;;;;;;5075683;28;20040;-78
2021/08/03 00:07:19;;;;;;;2.55;0.93;;;15.90;72.60;;;;;;5074267;28;20024;-77
2021/08/03 00:09:45;;;;;;;1.80;0.90;;;15.90;72.70;;;;;;5054197;28;20040;-77
2021/08/03 00:12:13;;;;;;;2.42;0.90;;;15.80;72.60;;;;;;5054237;28;20029;-78
2021/08/03 00:14:47;;;;;;;1.35;0.85;;;15.80;72.60;;;;;;5054215;28;20108;-78
2021/08/03 00:17:16;;;;;;;1.92;1.10;;;15.80;72.70;;;;;;5054244;28;20396;-79
2021/08/03 00:19:43;;;;;;;1.65;1.02;;;15.80;72.70;;;;;;5054135;28;20032;-78
2021/08/03 00:22:08;;;;;;;2.17;0.90;;;15.80;72.70;;;;;;5055345;28;20056;-78
2021/08/03 00:24:35;;;;;;;2.38;1.13;;;15.80;72.70;;;;;;5054044;28;20036;-78
2021/08/03 00:27:03;;;;;;;3.03;1.10;;;15.70;72.70;;;;;;5053974;28;20103;-78
2021/08/03 00:29:29;;;;;;;1.65;0.88;;;15.80;72.80;;;;;;5054279;28;20040;-78
2021/08/03 00:31:55;;;;;;;1.63;0.90;;;15.70;72.80;;;;;;5053910;28;20477;-78
2021/08/03 00:34:21;;;;;;;1.58;0.70;;;15.70;72.90;;;;;;5054215;28;20081;-78
2021/08/03 00:36:47;;;;;;;1.38;0.88;;;15.70;72.90;;;;;;5053843;28;20029;-78
2021/08/03 00:39:12;;;;;;;1.58;1.02;;;15.70;73.00;;;;;;5053942;28;20396;-77
2021/08/03 00:41:44;;;;;;;1.60;0.75;;;15.60;73.10;;;;;;5055073;28;20029;-78
2021/08/03 00:44:10;;;;;;;1.60;0.80;;;15.70;73.20;;;;;;5055325;28;20059;-78
2021/08/03 00:46:36;;;;;;;1.50;0.70;;;15.60;73.30;;;;;;5053797;28;20025;-78
2021/08/03 00:49:03;;;;;;;2.30;0.90;;;15.60;73.40;;;;;;5053626;28;20053;-79
2021/08/03 00:51:28;;;;;;;1.02;0.77;;;15.60;73.50;;;;;;5054959;28;20025;-79
2021/08/03 00:53:54;;;;;;;4.18;0.90;;;15.60;73.50;;;;;;5053644;28;20025;-79
2021/08/03 00:56:20;;;;;;;1.92;0.80;;;15.60;73.50;;;;;;5053559;28;20028;-78
2021/08/03 01:02:07;;;;;;;1.85;0.93;;;15.60;73.70;;;;;;5054743;28;20032;-77
2021/08/03 01:04:34;;;;;;;1.33;0.80;;;15.50;73.60;;;;;;5053541;28;20028;-77
2021/08/03 01:07:06;;;;;;;2.70;0.90;;;15.50;73.70;;;;;;5053298;28;20513;-77
2021/08/03 01:09:54;;;;;;;0.98;0.80;;;15.50;73.80;;;;;;5053086;28;20056;-77
2021/08/03 01:12:48;;;;;;;1.27;0.90;;;15.50;73.90;;;;;;5053124;28;20549;-79
2021/08/03 01:15:32;;;;;;;1.13;0.70;;;15.50;74.00;;;;;;5053240;28;20078;-78
2021/08/03 01:18:15;;;;;;;0.88;0.70;;;15.50;73.90;;;;;;5053167;28;20029;-78
2021/08/03 01:24:28;;;;;;;1.90;0.80;;;15.50;74.00;;;;;;5054669;28;20035;-78
2021/08/03 01:27:12;;;;;;;0.90;0.82;;;15.50;74.00;;;;;;5052949;28;20063;-78
2021/08/03 01:29:41;;;;;;;1.27;0.65;;;15.50;74.00;;;;;;5052867;28;20044;-78
2021/08/03 01:32:11;;;;;;;2.65;0.88;;;15.50;74.00;;;;;;5052722;28;20032;-79
2021/08/03 01:34:46;;;;;;;0.82;0.70;;;15.50;74.10;;;;;;5052958;28;20036;-79
2021/08/03 01:37:20;;;;;;;0.70;0.60;;;15.50;74.20;;;;;;5052614;28;20141;-78
2021/08/03 01:39:50;;;;;;;1.15;0.73;;;15.50;74.20;;;;;;5052686;28;20124;-78
2021/08/03 01:42:18;;;;;;;1.05;0.60;;;15.50;74.30;;;;;;5052621;28;20043;-77
2021/08/03 01:44:49;;;;;;;1.40;0.90;;;15.40;74.20;;;;;;5052553;28;20488;-78
2021/08/03 01:47:18;;;;;;;1.80;0.60;;;15.40;74.40;;;;;;5052715;28;20037;-78
2021/08/03 01:49:46;;;;;;;2.00;0.80;;;15.40;74.40;;;;;;5054155;28;20032;-78
2021/08/03 01:52:14;;;;;;;1.20;0.80;;;15.30;74.40;;;;;;5053687;28;20100;-78
2021/08/03 01:54:43;;;;;;;1.23;0.90;;;15.30;74.50;;;;;;5052535;28;20025;-78
2021/08/03 01:57:09;;;;;;;2.88;1.00;;;15.30;74.60;;;;;;5052522;28;20029;-78
2021/08/03 01:59:35;;;;;;;0.93;0.60;;;15.30;74.70;;;;;;5053589;28;20107;-78
2021/08/03 02:02:01;;;;;;;0.93;0.60;;;15.20;74.80;;;;;;5052243;28;20037;-78
2021/08/03 02:04:30;;;;;;;1.00;0.70;;;15.20;74.90;;;;;;5052202;28;20176;-78
2021/08/03 02:06:56;;;;;;;1.55;0.80;;;15.10;75.00;;;;;;5052076;28;20075;-78
2021/08/03 02:09:23;;;;;;;0.98;0.70;;;15.10;75.10;;;;;;5061399;28;20045;-78
2021/08/03 02:11:50;;;;;;;1.98;0.77;;;15.10;75.20;;;;;;5071420;28;20605;-77
2021/08/03 02:14:19;;;;;;;1.20;0.68;;;15.10;75.40;;;;;;5071746;28;20028;-77
2021/08/03 02:16:45;;;;;;;1.13;0.60;;;15.00;75.40;;;;;;5070220;28;20107;-79
2021/08/03 02:19:11;;;;;;;1.45;0.60;;;15.00;75.50;;;;;;5070167;28;20087;-79
2021/08/03 02:21:37;;;;;;;3.10;0.75;;;15.00;75.60;;;;;;5055035;28;20033;-78
2021/08/03 02:24:04;;;;;;;2.80;0.70;;;15.00;75.80;;;;;;5073107;28;20041;-78
2021/08/03 02:26:29;;;;;;;1.85;0.80;;;15.00;75.80;;;;;;5055236;28;20032;-77
2021/08/03 02:28:55;;;;;;;0.80;0.73;;;15.00;75.80;;;;;;5054930;28;20029;-77
2021/08/03 02:31:28;;;;;;;1.67;0.75;;;15.00;75.90;;;;;;5071521;28;20132;-78
2021/08/03 02:34:02;;;;;;;0.95;0.68;;;15.00;76.00;;;;;;5071721;28;20115;-78
2021/08/03 02:36:28;;;;;;;;;;;15.00;76.10;;;;;;5071958;28;20028;-78
2021/08/03 02:39:01;;;;;;;2.22;0.70;;;15.00;76.00;;;;;;5072942;28;19913;-78
2021/08/03 02:41:30;;;;;;;1.43;0.60;;;14.90;76.00;;;;;;5071779;28;20043;-78
2021/08/03 02:43:57;;;;;;;1.58;0.60;;;14.90;76.10;;;;;;5072966;28;20055;-78
2021/08/03 02:46:24;;;;;;;0.93;0.75;;;14.90;76.10;;;;;;5072775;28;20399;-78
2021/08/03 02:49:08;;;;;;;1.05;0.63;;;14.90;76.10;;;;;;5071550;28;20074;-78
2021/08/03 02:51:37;;;;;;;1.02;0.73;;;14.80;76.10;;;;;;5072710;28;20032;-78
2021/08/03 02:54:18;;;;;;;0.80;0.70;;;14.90;76.30;;;;;;5072651;28;20032;-78
2021/08/03 02:56:49;;;;;;;2.67;0.70;;;14.90;76.30;;;;;;5054683;28;20071;-78
2021/08/03 02:59:16;;;;;;;2.83;0.85;;;14.90;76.40;;;;;;5071845;28;20435;-78
2021/08/03 03:01:43;;;;;;;1.05;0.77;;;14.90;76.40;;;;;;5072782;28;20104;-77
2021/08/03 03:04:41;;;;;;;2.10;0.98;;;14.90;76.40;;;;;;5072806;28;20086;-78
2021/08/03 03:07:14;;;;;;;0.73;0.63;;;14.90;76.60;;;;;;5057037;28;20040;-78
2021/08/03 03:09:42;;;;;;;1.90;0.80;;;14.90;76.50;;;;;;5072403;28;20076;-78
2021/08/03 03:12:09;;;;;;;2.60;0.90;;;14.90;76.60;;;;;;5054527;28;20021;-78
2021/08/03 03:14:37;;;;;;;2.65;0.88;;;14.80;76.50;;;;;;5071195;28;20123;-78
2021/08/03 03:17:05;;;;;;;2.80;0.88;;;14.80;76.60;;;;;;5072356;28;20098;-77
2021/08/03 03:19:33;;;;;;;1.88;0.90;;;14.80;76.70;;;;;;5071219;28;20480;-78
2021/08/03 03:22:02;;;;;;;3.72;1.02;;;14.80;76.70;;;;;;5071488;28;20021;-78
2021/08/03 03:24:32;;;;;;;2.40;0.90;;;14.90;76.90;;;;;;5072935;28;20476;-78
2021/08/03 03:27:00;;;;;;;1.17;0.70;;;14.80;76.90;;;;;;5075077;28;20021;-78
2021/08/03 03:29:26;;;;;;;1.00;0.70;;;14.90;76.90;;;;;;5075065;28;20503;-78
2021/08/03 03:31:54;;;;;;;3.13;1.00;;;14.80;76.90;;;;;;5076381;28;20025;-77
2021/08/03 03:34:21;;;;;;;2.00;1.00;;;14.80;77.00;;;;;;5076468;28;20392;-79
2021/08/03 03:36:49;;;;;;;2.42;1.00;;;14.80;77.00;;;;;;5073296;28;20553;-78
2021/08/03 03:39:16;;;;;;;1.95;1.00;;;14.80;77.10;;;;;;5058600;28;20027;-78
2021/08/03 03:42:01;;;;;;;1.75;0.90;;;14.80;77.10;;;;;;5058283;28;20423;-78
2021/08/03 03:44:28;;;;;;;2.20;0.90;;;14.80;77.20;;;;;;5076156;28;20017;-78
2021/08/03 03:47:23;;;;;;;2.30;0.80;;;14.80;77.20;;;;;;5076170;28;20025;-78
2021/08/03 03:49:54;;;;;;;2.20;0.90;;;14.80;77.40;;;;;;5055837;28;20060;-77
2021/08/03 03:52:23;;;;;;;0.93;0.82;;;14.80;77.30;;;;;;5074727;28;20082;-77
2021/08/03 03:54:52;;;;;;;1.63;0.75;;;14.80;77.30;;;;;;5074715;28;20108;-77
2021/08/03 03:57:21;;;;;;;2.80;1.00;;;14.80;77.30;;;;;;5075873;28;20036;-79
2021/08/03 03:59:49;;;;;;;1.30;0.77;;;14.80;78.00;;;;;;5057820;28;20037;-78
2021/08/03 04:02:16;;;;;;;2.80;1.00;;;14.80;77.40;;;;;;5057855;28;20024;-78
2021/08/03 04:04:43;;;;;;;1.30;0.80;;;14.80;77.50;;;;;;5057939;28;20190;-78
2021/08/03 04:07:09;;;;;;;3.38;1.17;;;14.80;77.50;;;;;;5075742;28;20024;-78
2021/08/03 04:09:34;;;;;;;2.03;1.20;;;14.70;77.50;;;;;;5062135;28;20545;-78
2021/08/03 04:12:00;;;;;;;1.10;0.80;;;14.70;77.60;;;;;;5057798;28;20497;-77
2021/08/03 04:14:28;;;;;;;1.23;0.90;;;14.70;77.60;;;;;;5075940;28;20024;-77
2021/08/03 04:16:56;;;;;;;1.77;1.00;;;14.70;77.70;;;;;;5057633;28;20012;-78
2021/08/03 04:19:22;;;;;;;2.75;0.90;;;14.70;77.80;;;;;;5075487;28;20074;-78
2021/08/03 04:21:48;;;;;;;2.80;1.00;;;14.70;77.80;;;;;;5075549;28;20016;-78
2021/08/03 04:24:17;;;;;;;3.42;0.95;;;14.70;77.90;;;;;;5057509;28;20016;-78
2021/08/03 04:26:44;;;;;;;0.90;0.80;;;14.70;77.80;;;;;;5057772;28;20044;-79
2021/08/03 04:29:09;;;;;;;1.08;0.70;;;14.70;77.80;;;;;;5057395;28;20033;-78
2021/08/03 04:31:35;;;;;;;1.40;0.73;;;14.70;77.90;;;;;;5057254;28;20027;-77
2021/08/03 04:34:02;;;;;;;1.77;0.70;;;14.70;77.80;;;;;;5075298;28;20055;-77
2021/08/03 04:36:27;;;;;;;1.65;0.80;;;14.70;77.70;;;;;;5053889;28;20048;-78
2021/08/03 04:38:53;;;;;;;1.58;0.80;;;14.80;77.80;;;;;;5075242;28;20016;-78
2021/08/03 04:41:20;;;;;;;3.10;0.80;;;14.70;77.70;;;;;;5057084;28;20017;-78
2021/08/03 04:43:46;;;;;;;1.13;0.70;;;14.70;77.70;;;;;;5056932;28;20037;-80
2021/08/03 04:49:33;;;;;;;3.65;0.98;;;14.70;77.90;;;;;;5075161;28;20074;-77
2021/08/03 04:51:59;;;;;;;1.00;0.90;;;14.60;77.80;;;;;;5056959;28;20009;-78
2021/08/03 04:57:47;;;;;;;1.60;1.00;;;14.60;78.00;;;;;;5075384;28;20019;-79
2021/08/03 05:00:14;;;;;;;2.90;1.20;;;14.50;78.00;;;;;;5054109;28;20025;-79
2021/08/03 05:02:41;;;;;;;3.05;1.30;;;14.50;78.00;;;;;;5074851;28;20037;-79
2021/08/03 05:05:08;;;;;;;2.85;1.15;;;14.50;78.70;;;;;;5057061;28;20058;-78
2021/08/03 05:07:34;;;;;;;1.77;1.38;;;14.50;78.10;;;;;;5056536;28;20020;-77
2021/08/03 05:10:21;;;;;;;2.65;1.20;;;14.60;78.20;;;;;;5052903;28;20447;-77
2021/08/03 05:12:46;;;;;;;1.75;1.08;;;14.60;78.20;;;;;;5052937;28;20021;-78
2021/08/03 05:15:12;;;;;;;2.08;1.17;;;14.70;78.00;;;;;;5053019;28;20025;-78
2021/08/03 05:17:37;;;;;;;1.20;1.10;;;14.80;78.00;;;;;;5054267;28;20032;-77
2021/08/03 05:20:03;;;;;;;1.77;0.80;;;14.80;77.80;;;;;;5052942;28;20025;-77
2021/08/03 05:22:30;;;;;;;1.98;1.20;;;14.90;77.70;;;;;;5053157;28;20504;-77
2021/08/03 05:24:56;;;;;;;2.25;1.20;;;15.00;77.60;;;;;;5052780;28;20040;-78
2021/08/03 05:27:21;;;;;;;1.63;1.40;;;15.00;77.50;;;;;;5052900;28;20021;-77
2021/08/03 05:29:47;;;;;;;1.90;1.50;;;15.10;78.10;;;;;;5052919;28;20017;-78
2021/08/03 05:32:13;;;;;;;2.00;1.48;;;15.10;77.40;;;;;;5052671;28;20117;-78
2021/08/03 05:34:39;;;;;;;1.77;1.40;;;15.10;77.30;;;;;;5052684;28;20024;-77
2021/08/03 05:37:05;;;;;;;1.63;1.52;;;15.20;77.30;;;;;;5052707;28;20379;-77
2021/08/03 05:39:31;;;;;;;1.70;1.60;;;15.30;77.30;;;;;;5053976;28;20021;-77
2021/08/03 05:45:19;;;;;;;3.10;1.67;;;15.40;77.20;;;;;;5054018;28;20019;-78
2021/08/03 05:47:45;;;;;;;2.42;1.60;;;15.50;77.00;;;;;;5051556;28;20025;-78
2021/08/03 05:50:11;;;;;;;1.33;1.23;;;15.50;76.90;;;;;;5053685;28;20456;-78
2021/08/03 05:55:58;;;;;;;1.55;1.20;;;15.70;76.70;;;;;;5053976;28;20075;-78
2021/08/03 05:58:24;;;;;;;2.72;1.30;;;15.80;76.60;;;;;;5053574;28;20021;-77
2021/08/03 06:00:49;;;;;;;3.50;1.67;;;15.80;76.60;;;;;;5052067;28;20052;-78
2021/08/03 06:03:15;;;;;;;2.97;1.58;;;15.80;76.60;;;;;;5053373;28;20083;-78
2021/08/03 06:05:41;;;;;;;2.72;1.45;;;15.80;76.60;;;;;;5052107;28;20108;-79
2021/08/03 06:08:10;;;;;;;1.52;1.40;;;15.90;76.60;;;;;;5051981;28;20052;-77
2021/08/03 06:10:37;;;;;;;4.20;1.80;;;15.90;76.50;;;;;;5069455;28;20547;-78
2021/08/03 06:13:06;;;;;;;1.73;1.30;;;15.90;76.50;;;;;;5055384;28;20083;-78
2021/08/03 06:15:38;;;;;;;1.95;1.30;;;16.00;76.50;;;;;;5071994;28;20396;-77
2021/08/03 06:18:21;;;;;;;3.42;1.60;;;16.00;76.40;;;;;;5071710;28;20377;-77
2021/08/03 06:20:48;;;;;;;3.27;1.30;;;16.00;76.30;;;;;;5073044;28;20028;-78
2021/08/03 06:23:14;;;;;;;4.72;1.30;;;16.00;76.30;;;;;;5054940;28;20035;-78
2021/08/03 06:25:40;;;;;;;2.00;1.50;;;16.00;76.20;;;;;;5071895;28;20337;-79
2021/08/03 06:31:29;;;;;;;2.55;1.40;;;16.10;76.20;;;;;;5072925;28;20043;-78
2021/08/03 06:33:55;;;;;;;1.42;1.05;;;16.10;76.20;;;;;;5054914;28;20074;-78
2021/08/03 06:36:20;;;;;;;2.45;1.33;;;16.10;76.10;;;;;;5073000;28;20029;-77
2021/08/03 06:38:46;;;;;;;1.50;1.40;;;16.10;76.10;;;;;;5054927;28;20472;-78
2021/08/03 06:41:38;;;;;;;1.73;1.30;;;16.20;76.10;;;;;;5054877;28;20079;-77
2021/08/03 06:44:13;;;;;;;3.17;1.60;;;16.20;76.00;;;;;;5072970;28;20031;-78
2021/08/03 06:46:45;;;;;;;1.90;1.35;;;16.20;75.90;;;;;;5071816;28;20124;-78
2021/08/03 06:52:34;;;;;;;3.42;1.20;;;16.30;75.90;;;;;;5073113;28;20105;-78
2021/08/03 06:55:06;;;;;;;3.42;1.90;;;16.30;75.80;;;;;;5072901;28;20024;-78
2021/08/03 06:57:34;;;;;;;2.38;1.50;;;16.30;75.80;;;;;;5054325;28;20025;-73
2021/08/03 07:00:05;;;;;;;1.48;1.30;;;16.40;75.80;;;;;;5054798;28;20464;-73
2021/08/03 07:02:35;;;;;;;2.95;1.80;;;16.40;75.70;;;;;;5072743;28;20032;-77
2021/08/03 07:05:09;;;;;;;2.28;1.73;;;16.50;75.70;;;;;;5054523;28;20028;-77
2021/08/03 07:07:35;;;;;;;1.60;1.27;;;16.50;75.70;;;;;;5054993;28;20143;-78
2021/08/03 07:10:03;;;;;;;2.88;1.55;;;16.50;75.60;;;;;;5072359;28;20045;-78
2021/08/03 07:12:29;;;;;;;2.88;1.70;;;16.60;75.50;;;;;;5072655;28;20040;-79
2021/08/03 07:14:57;;;;;;;2.33;1.65;;;16.60;75.50;;;;;;5072983;28;20031;-78
2021/08/03 07:17:25;;;;;;;2.58;1.80;;;16.70;75.50;;;;;;5072914;28;20491;-78
2021/08/03 07:19:51;;;;;;;3.10;1.52;;;16.70;75.50;;;;;;5054926;28;20029;-79
2021/08/03 07:22:17;;;;;;;2.67;1.55;;;16.70;75.40;;;;;;5054670;28;20487;-78
2021/08/03 07:24:46;;;;;;;1.80;1.60;;;16.80;75.40;;;;;;5072533;28;20037;-78
2021/08/03 07:27:12;;;;;;;2.83;1.90;;;16.80;75.30;;;;;;5054577;28;20187;-78
2021/08/03 07:29:39;;;;;;;3.10;1.80;;;16.80;75.30;;;;;;5072797;28;20029;-78
2021/08/03 07:32:08;;;;;;;2.83;1.98;;;16.80;75.30;;;;;;5072421;28;20476;-78
2021/08/03 07:34:40;;;;;;;2.22;1.70;;;16.90;75.30;;;;;;5054474;28;20052;-78
2021/08/03 07:37:06;;;;;;;3.77;2.10;;;16.90;75.30;;;;;;5072424;28;20472;-77
2021/08/03 07:39:33;;;;;;;3.85;2.20;;;16.90;75.20;;;;;;5054383;28;20488;-78
2021/08/03 07:41:59;;;;;;;2.60;1.95;;;16.90;75.20;;;;;;5071003;28;20056;-77
2021/08/03 07:44:25;;;;;;;2.10;1.90;;;16.90;75.20;;;;;;5072405;28;20060;-79
2021/08/03 07:46:50;;;;;;;5.40;2.28;;;17.00;75.20;;;;;;5072269;28;20031;-78
2021/08/03 07:49:17;;;;;;;2.92;2.15;;;17.00;75.10;;;;;;5072176;28;20055;-78
2021/08/03 07:51:42;;;;;;;4.65;1.85;;;17.10;75.10;;;;;;5072310;28;20059;-78
2021/08/03 07:54:08;;;;;;;3.50;2.20;;;17.10;75.00;;;;;;5054169;28;20024;-79
2021/08/03 07:56:33;;;;;;;2.10;1.83;;;17.10;75.60;;;;;;5072314;28;20020;-78
2021/08/03 07:59:01;;;;;;;4.35;2.03;;;17.30;75.00;;;;;;5054233;28;20060;-79
2021/08/03 08:01:26;;;;;;;3.88;2.42;;;17.30;75.40;;;;;;5054236;28;20028;-77
2021/08/03 08:03:52;;;;;;;5.20;2.42;;;17.40;74.60;;;;;;5054494;28;20479;-78
2021/08/03 08:06:18;;;;;;;3.63;2.22;;;17.50;74.40;;;;;;5072113;28;20025;-79
2021/08/03 08:12:33;;;;;;;2.83;2.30;;;17.50;74.30;;;;;;5073698;28;20054;-78
2021/08/03 08:14:58;;;;;;;4.18;2.85;;;17.60;74.30;;;;;;5074295;28;20036;-79
2021/08/03 08:17:24;;;;;;;3.95;3.38;;;17.60;74.20;;;;;;5074419;28;20029;-79
2021/08/03 08:19:50;;;;;;;4.55;3.15;;;17.70;74.20;;;;;;5075720;28;20025;-79
2021/08/03 08:22:15;;;;;;;3.50;3.20;;;17.80;74.20;;;;;;5074748;28;20032;-78
2021/08/03 08:25:22;;;;;;;4.90;4.13;;;17.80;74.10;;;;;;5057632;28;20029;-78
2021/08/03 08:27:47;;;;;;;4.82;3.72;;;17.80;74.00;;;;;;5057354;28;20036;-77
2021/08/03 08:30:14;;;;;;;6.80;3.97;;;17.80;74.00;;;;;;5057324;28;20479;-79
2021/08/03 08:32:43;;;;;;;5.53;4.22;;;17.80;74.00;;;;;;5074109;28;20115;-78
2021/08/03 08:35:10;;;;;;;6.43;3.92;;;17.90;74.10;;;;;;5057457;28;20116;-78
2021/08/03 08:37:36;;;;;;;5.28;4.32;;;17.90;74.00;;;;;;5075500;28;20483;-79
2021/08/03 08:40:03;;;;;;;4.88;4.28;;;18.00;74.00;;;;;;5057231;28;20030;-79
2021/08/03 08:42:29;;;;;;;5.47;4.43;;;18.10;73.90;;;;;;5074103;28;20131;-78
2021/08/03 08:44:55;;;;;;;6.85;4.45;;;18.10;73.80;;;;;;5057211;28;20047;-78
2021/08/03 08:47:22;;;;;;;5.30;4.35;;;18.20;73.60;;;;;;5073756;28;20025;-79
2021/08/03 08:49:49;;;;;;;4.22;3.80;;;18.20;73.50;;;;;;5056866;28;20036;-78
2021/08/03 08:52:15;;;;;;;6.07;3.97;;;18.30;73.60;;;;;;5074082;28;20127;-78
2021/08/03 08:54:41;;;;;;;8.70;4.93;;;18.30;73.50;;;;;;5075009;28;20100;-79
2021/08/03 09:00:29;;;;;;;5.88;4.43;;;18.60;73.20;;;;;;5075251;28;20043;-79
2021/08/03 09:02:56;;;;;;;5.85;4.20;;;18.70;73.00;;;;;;5074685;28;20024;-78
2021/08/03 09:05:39;;;;;;;5.82;4.07;;;18.70;72.90;;;;;;5073227;28;20050;-78
2021/08/03 09:08:07;;;;;;;5.70;4.65;;;18.80;72.70;;;;;;5056974;28;20147;-78
2021/08/03 09:10:34;;;;;;;7.47;4.40;;;18.80;72.60;;;;;;5072893;28;20078;-79
2021/08/03 09:13:05;;;;;;;6.38;4.82;;;18.90;72.60;;;;;;5053261;28;20492;-78
2021/08/03 09:15:32;;;;;;;6.03;4.47;;;18.90;72.50;;;;;;5054440;28;20037;-79
2021/08/03 09:18:14;;;;;;;5.70;4.20;;;18.90;72.40;;;;;;5053205;28;20028;-79
2021/08/03 09:20:41;;;;;;;6.47;3.90;;;18.90;72.30;;;;;;5054262;28;20048;-80
2021/08/03 09:23:07;;;;;;;6.13;3.90;;;18.90;72.20;;;;;;5052069;28;20087;-79
2021/08/03 09:25:34;;;;;;;4.68;3.47;;;18.90;72.20;;;;;;5035338;28;20507;-78
2021/08/03 09:28:08;;;;;;;5.53;4.05;;;18.90;72.10;;;;;;5035413;28;20037;-79
2021/08/03 09:30:37;;;;;;;5.22;3.88;;;19.00;72.00;;;;;;5035270;28;20071;-78
2021/08/03 09:33:04;;;;;;;4.50;3.65;;;19.10;71.80;;;;;;5035333;28;20037;-80
2021/08/03 09:35:31;;;;;;;6.45;3.88;;;19.20;71.60;;;;;;5052075;28;20516;-78
2021/08/03 09:37:58;;;;;;;4.82;3.70;;;19.30;71.40;;;;;;5035347;28;20033;-79
2021/08/03 09:40:32;;;;;;;5.50;4.10;;;19.40;71.10;;;;;;5035191;28;20115;-77
2021/08/03 09:43:13;;;;;;;5.47;3.97;;;19.50;70.80;;;;;;5035348;28;20040;-78
2021/08/03 09:45:44;;;;;;;6.80;4.38;;;19.60;70.60;;;;;;5035213;28;20033;-80
2021/08/03 09:48:12;;;;;;;8.27;4.65;;;19.80;70.40;;;;;;5051859;28;20228;-79
2021/08/03 09:50:51;;;;;;;7.18;5.15;;;19.90;70.00;;;;;;5034885;28;20123;-79
2021/08/03 09:53:46;;;;;;;7.53;4.78;;;20.00;69.80;;;;;;5052040;28;20040;-79
2021/08/03 09:56:16;;;;;;;10.05;5.38;;;20.20;69.60;;;;;;5052566;28;20033;-79
2021/08/03 09:58:55;;;;;;;10.00;6.68;;;20.30;69.30;;;;;;5052387;28;20025;-79
2021/08/03 10:01:30;;;;;;;6.15;4.72;;;20.50;69.00;;;;;;5052648;28;20040;-79
2021/08/03 10:03:59;;;;;;;7.25;5.68;;;20.50;68.90;;;;;;5052366;28;20036;-79
2021/08/03 10:06:24;;;;;;;8.10;6.00;;;20.60;68.60;;;;;;5052453;28;20033;-79
2021/08/03 10:08:52;;;;;;;8.05;6.45;;;20.70;68.50;;;;;;5052234;28;20029;-79
2021/08/03 10:11:20;;;;;;;7.15;5.47;;;20.90;68.40;;;;;;5052125;28;20396;-80
2021/08/03 10:13:47;;;;;;;7.93;5.28;;;20.90;68.10;;;;;;5051790;28;20048;-79
2021/08/03 10:16:13;;;;;;;9.38;6.72;;;21.00;68.00;;;;;;5053390;28;20036;-79
2021/08/03 10:18:44;;;;;;;10.63;7.63;;;21.00;67.80;;;;;;5052172;28;20017;-78
2021/08/03 10:21:31;;;;;;;10.10;8.35;;;21.10;67.50;;;;;;5053162;28;20033;-79
2021/08/03 10:24:01;;;;;;;7.93;7.13;;;21.20;67.40;;;;;;5053274;28;20451;-79
2021/08/03 10:26:27;;;;;;;8.15;6.72;;;21.20;67.30;;;;;;5051723;28;20345;-79
2021/08/03 10:29:21;;;;;;;11.77;7.53;;;21.30;67.20;;;;;;5051825;28;20028;-79
2021/08/03 10:31:47;;;;;;;7.03;5.97;;;21.30;66.90;;;;;;5051870;28;20124;-79
2021/08/03 10:37:57;;;;;;;9.38;6.97;;;21.40;66.80;;;;;;5053149;28;20162;-78
2021/08/03 10:40:41;;;;;;;7.88;7.03;;;21.60;66.60;;;;;;5051822;28;20079;-78
2021/08/03 10:43:13;;;;;;;10.05;7.70;;;21.70;66.40;;;;;;5052922;28;20040;-78
2021/08/03 10:45:39;;;;;;;9.32;8.25;;;21.70;66.00;;;;;;5051916;28;20071;-78
2021/08/03 10:48:04;;;;;;;9.32;7.95;;;21.80;66.00;;;;;;5051575;28;20021;-80
2021/08/03 10:50:32;;;;;;;11.15;8.80;;;21.90;65.80;;;;;;5051615;28;20071;-79
2021/08/03 10:53:03;;;;;;;10.52;8.93;;;21.90;65.60;;;;;;5051682;28;20033;-79
2021/08/03 10:55:38;;;;;;;10.18;9.00;;;22.00;65.40;;;;;;5052988;28;20021;-80
2021/08/03 10:58:10;;;;;;;12.45;9.93;;;22.10;65.10;;;;;;5051812;28;20063;-80
2021/08/03 11:00:54;;;;;;;10.07;8.98;;;22.20;64.80;;;;;;5052823;28;20040;-79
2021/08/03 11:03:49;;;;;;;9.10;8.20;;;22.20;64.40;;;;;;5051776;28;20119;-79
2021/08/03 11:06:15;;;;;;;9.23;8.23;;;22.20;64.20;;;;;;5038660;28;20037;-79
2021/08/03 11:08:48;;;;;;;10.32;8.70;;;22.10;64.10;;;;;;5052871;28;20029;-78
2021/08/03 11:11:22;;;;;;;11.57;8.95;;;22.10;64.00;;;;;;5051489;28;20067;-78
2021/08/03 11:13:54;;;;;;;12.60;10.30;;;22.00;64.00;;;;;;5051701;28;20042;-78
2021/08/03 11:16:20;;;;;;;10.70;9.45;;;21.90;64.00;;;;;;5051399;28;20025;-78
2021/08/03 11:18:54;;;;;;;10.27;8.60;;;21.80;63.90;;;;;;5051616;28;20044;-80
2021/08/03 11:21:27;;;;;;;11.05;8.80;;;21.70;64.00;;;;;;5051426;28;20025;-78
2021/08/03 11:23:57;;;;;;;10.07;7.78;;;21.60;64.20;;;;;;5052754;28;20114;-78
2021/08/03 11:26:28;;;;;;;12.05;8.70;;;21.50;64.50;;;;;;5051349;28;20049;-78
2021/08/03 11:29:10;;;;;;;10.95;8.77;;;21.50;64.50;;;;;;5051345;28;20396;-78
2021/08/03 11:31:45;;;;;;;12.75;10.00;;;21.40;64.50;;;;;;5051355;28;20072;-78
2021/08/03 11:34:12;;;;;;;10.10;9.10;;;21.40;64.40;;;;;;5051208;28;20475;-78
2021/08/03 11:36:56;;;;;;;11.85;9.50;;;21.20;64.40;;;;;;5051097;28;20029;-78
2021/08/03 11:39:23;;;;;;;13.57;10.02;;;21.10;64.40;;;;;;5051154;28;20142;-78
2021/08/03 11:41:50;;;;;;;11.60;9.45;;;21.00;64.70;;;;;;5052385;28;20033;-79
2021/08/03 11:44:17;;;;;;;11.55;9.98;;;20.80;64.70;;;;;;5051002;28;20033;-78
2021/08/03 11:46:44;;;;;;;12.27;8.45;;;20.70;64.70;;;;;;5055119;28;20122;-79
2021/08/03 11:49:10;;;;;;;13.77;8.82;;;20.60;64.80;;;;;;5054712;28;20443;-78
2021/08/03 11:51:47;;;;;;;9.55;8.07;;;20.50;64.90;;;;;;5056162;28;20444;-80
2021/08/03 11:54:18;;;;;;;11.13;7.55;;;20.50;65.10;;;;;;5056118;28;20033;-79
2021/08/03 11:56:44;;;;;;;9.75;8.57;;;20.40;65.20;;;;;;5054754;28;20021;-79
2021/08/03 11:59:11;;;;;;;9.50;7.68;;;20.30;65.30;;;;;;5054981;28;20017;-78
2021/08/03 12:01:51;;;;;;;9.95;7.35;;;20.20;65.40;;;;;;5054896;28;20481;-78
2021/08/03 12:04:21;;;;;;;10.18;7.55;;;20.10;65.50;;;;;;5055722;28;20025;-78
2021/08/03 12:06:48;;;;;;;13.63;7.68;;;20.10;65.60;;;;;;5055997;28;20025;-79
2021/08/03 12:09:14;;;;;;;9.50;7.82;;;20.00;65.70;;;;;;5055907;28;20029;-79
2021/08/03 12:11:39;;;;;;;8.43;6.90;;;20.00;65.80;;;;;;5055975;28;20039;-78
2021/08/03 12:14:15;;;;;;;10.32;7.63;;;20.00;65.80;;;;;;5054418;28;20127;-78
2021/08/03 12:16:44;;;;;;;10.50;7.80;;;20.00;65.80;;;;;;5055870;28;20104;-77
2021/08/03 12:19:29;;;;;;;9.18;7.25;;;19.90;65.80;;;;;;5054444;28;20025;-78
2021/08/03 12:21:55;;;;;;;9.50;7.57;;;19.90;65.80;;;;;;5054200;28;20071;-79
2021/08/03 12:24:21;;;;;;;9.43;7.95;;;19.90;65.80;;;;;;5054372;28;20065;-79
2021/08/03 12:26:46;;;;;;;8.60;7.43;;;19.80;65.70;;;;;;5054205;28;20055;-78
2021/08/03 12:29:12;;;;;;;10.20;7.13;;;19.80;65.80;;;;;;5053926;28;20123;-79
2021/08/03 12:31:37;;;;;;;7.82;6.65;;;19.80;65.90;;;;;;5055306;28;20025;-79
2021/08/03 12:34:06;;;;;;;8.35;7.32;;;19.80;65.90;;;;;;5053893;28;20086;-78
2021/08/03 12:36:50;;;;;;;9.77;7.20;;;19.70;65.80;;;;;;5055466;28;20040;-78
2021/08/03 12:39:39;;;;;;;8.43;6.78;;;19.80;65.90;;;;;;5054011;28;20033;-79
2021/08/03 12:42:34;;;;;;;7.80;7.00;;;19.80;65.90;;;;;;5053907;28;20033;-79
2021/08/03 12:45:12;;;;;;;9.32;7.43;;;19.70;65.90;;;;;;5053610;28;20116;-79
2021/08/03 12:47:54;;;;;;;9.80;8.20;;;19.70;65.90;;;;;;5053933;28;20025;-79
2021/08/03 12:50:22;;;;;;;10.73;8.25;;;19.70;66.00;;;;;;5053905;28;20449;-79
2021/08/03 12:52:54;;;;;;;9.35;8.35;;;19.70;66.10;;;;;;5054880;28;20029;-78
2021/08/03 12:55:56;;;;;;;9.85;8.85;;;19.60;66.20;;;;;;5053260;28;20438;-79
2021/08/03 12:58:44;;;;;;;9.77;8.63;;;19.60;66.40;;;;;;5053650;28;20430;-78
2021/08/03 13:01:22;;;;;;;10.23;8.60;;;19.60;66.40;;;;;;5054799;28;20029;-78
2021/08/03 13:03:50;;;;;;;11.20;8.70;;;19.60;66.50;;;;;;5053620;28;20060;-78
2021/08/03 13:06:16;;;;;;;11.18;9.52;;;19.60;66.70;;;;;;5053837;28;20025;-78
2021/08/03 13:08:44;;;;;;;11.05;8.65;;;19.60;66.80;;;;;;5053498;28;20531;-80
2021/08/03 13:11:10;;;;;;;9.70;8.63;;;19.50;66.80;;;;;;5054629;28;20029;-78
2021/08/03 13:13:37;;;;;;;11.88;9.57;;;19.50;66.90;;;;;;5053149;28;20500;-78
2021/08/03 13:16:03;;;;;;;9.65;8.63;;;19.50;67.10;;;;;;5053258;28;20490;-78
2021/08/03 13:18:31;;;;;;;9.27;8.38;;;19.50;67.20;;;;;;5054538;28;20499;-78
2021/08/03 13:20:57;;;;;;;10.88;8.70;;;19.50;67.30;;;;;;5053465;28;20029;-77
2021/08/03 13:23:23;;;;;;;11.45;8.82;;;19.50;67.40;;;;;;5053130;28;20123;-78
2021/08/03 13:25:49;;;;;;;9.95;8.13;;;19.50;67.50;;;;;;5054431;28;20053;-78
2021/08/03 13:28:14;;;;;;;12.73;8.52;;;19.50;67.50;;;;;;5054369;28;20033;-78
2021/08/03 13:30:40;;;;;;;10.18;8.75;;;19.50;67.60;;;;;;5053166;28;20401;-78
2021/08/03 13:33:06;;;;;;;10.93;8.88;;;19.50;67.60;;;;;;5054338;28;20032;-78
2021/08/03 13:35:31;;;;;;;10.75;8.85;;;19.50;67.60;;;;;;5052881;28;20028;-78
2021/08/03 13:37:58;;;;;;;11.50;9.32;;;19.50;67.60;;;;;;5054177;28;20481;-79